sensor_id;sensor_type;location;lat;lon;timestamp;pressure;altitude;pressure_sealevel;temperature;humidity
23118;BME280;11728;50.624;6.014;2023-06-19T00:04:29;97668.88;;;22.13;61.39
23118;BME280;11728;50.624;6.014;2023-06-19T00:09:50;97662.00;;;21.98;62.73
23118;BME280;11728;50.624;6.014;2023-06-19T00:15:11;97661.69;;;21.79;63.73
23118;BME280;11728;50.624;6.014;2023-06-19T00:20:32;97666.06;;;21.69;64.08
23118;BME280;11728;50.624;6.014;2023-06-19T00:25:53;97676.31;;;21.65;64.39
23118;BME280;11728;50.624;6.014;2023-06-19T00:31:14;97683.03;;;21.59;64.11
23118;BME280;11728;50.624;6.014;2023-06-19T00:36:35;97686.44;;;21.61;63.40
23118;BME280;11728;50.624;6.014;2023-06-19T00:42:01;97690.75;;;21.64;63.04
23118;BME280;11728;50.624;6.014;2023-06-19T00:47:22;97693.31;;;21.65;63.10
23118;BME280;11728;50.624;6.014;2023-06-19T00:52:43;97702.19;;;21.55;63.64
23118;BME280;11728;50.624;6.014;2023-06-19T00:58:04;97704.31;;;21.50;63.93
23118;BME280;11728;50.624;6.014;2023-06-19T01:03:25;97701.88;;;21.47;63.98
23118;BME280;11728;50.624;6.014;2023-06-19T01:14:44;97703.13;;;21.54;63.25
23118;BME280;11728;50.624;6.014;2023-06-19T01:20:09;97706.91;;;21.51;62.90
23118;BME280;11728;50.624;6.014;2023-06-19T01:25:31;97706.16;;;21.49;62.89
23118;BME280;11728;50.624;6.014;2023-06-19T01:30:54;97722.63;;;21.45;63.01
23118;BME280;11728;50.624;6.014;2023-06-19T01:36:17;97723.28;;;21.36;63.04
23118;BME280;11728;50.624;6.014;2023-06-19T01:41:40;97731.94;;;21.28;63.84
23118;BME280;11728;50.624;6.014;2023-06-19T01:47:10;97734.97;;;21.24;64.31
23118;BME280;11728;50.624;6.014;2023-06-19T01:52:31;97743.78;;;21.26;63.19
23118;BME280;11728;50.624;6.014;2023-06-19T01:57:52;97758.84;;;21.16;63.06
23118;BME280;11728;50.624;6.014;2023-06-19T02:03:12;97770.19;;;20.96;64.17
23118;BME280;11728;50.624;6.014;2023-06-19T02:08:33;97775.00;;;20.91;64.63
23118;BME280;11728;50.624;6.014;2023-06-19T02:13:54;97788.34;;;20.92;64.88
23118;BME280;11728;50.624;6.014;2023-06-19T02:19:14;97795.44;;;20.93;64.98
23118;BME280;11728;50.624;6.014;2023-06-19T02:24:35;97791.88;;;20.93;65.63
23118;BME280;11728;50.624;6.014;2023-06-19T02:29:57;97797.69;;;20.87;66.54
23118;BME280;11728;50.624;6.014;2023-06-19T02:35:18;97795.94;;;20.74;68.58
23118;BME280;11728;50.624;6.014;2023-06-19T02:40:39;97808.38;;;20.62;69.94
23118;BME280;11728;50.624;6.014;2023-06-19T02:46:00;97810.97;;;20.51;71.65
23118;BME280;11728;50.624;6.014;2023-06-19T02:51:20;97820.19;;;20.47;72.62
23118;BME280;11728;50.624;6.014;2023-06-19T02:56:41;97809.78;;;20.55;73.35
23118;BME280;11728;50.624;6.014;2023-06-19T03:02:02;97809.91;;;20.54;73.97
23118;BME280;11728;50.624;6.014;2023-06-19T03:07:23;97819.88;;;20.64;74.13
23118;BME280;11728;50.624;6.014;2023-06-19T03:12:48;97820.31;;;20.83;74.24
23118;BME280;11728;50.624;6.014;2023-06-19T03:18:09;97832.47;;;21.01;74.13
23118;BME280;11728;50.624;6.014;2023-06-19T03:23:31;97835.78;;;21.17;73.44
23118;BME280;11728;50.624;6.014;2023-06-19T03:28:51;97851.22;;;21.26;73.21
23118;BME280;11728;50.624;6.014;2023-06-19T03:34:13;97859.81;;;21.31;73.07
23118;BME280;11728;50.624;6.014;2023-06-19T03:39:34;97873.75;;;21.36;73.24
23118;BME280;11728;50.624;6.014;2023-06-19T03:44:54;97880.22;;;21.33;73.29
23118;BME280;11728;50.624;6.014;2023-06-19T03:50:15;97889.94;;;21.23;73.95
23118;BME280;11728;50.624;6.014;2023-06-19T03:55:36;97892.63;;;21.23;73.93
23118;BME280;11728;50.624;6.014;2023-06-19T04:00:56;97900.66;;;21.23;73.92
23118;BME280;11728;50.624;6.014;2023-06-19T04:06:17;97904.72;;;21.29;73.53
23118;BME280;11728;50.624;6.014;2023-06-19T04:11:38;97900.66;;;21.23;73.68
23118;BME280;11728;50.624;6.014;2023-06-19T04:16:59;97921.50;;;21.20;73.97
23118;BME280;11728;50.624;6.014;2023-06-19T04:22:19;97926.22;;;21.16;73.78
23118;BME280;11728;50.624;6.014;2023-06-19T04:27:40;97931.72;;;21.15;73.73
23118;BME280;11728;50.624;6.014;2023-06-19T04:33:01;97931.06;;;21.24;73.04
23118;BME280;11728;50.624;6.014;2023-06-19T04:38:21;97924.50;;;21.28;72.50
23118;BME280;11728;50.624;6.014;2023-06-19T04:43:44;97932.03;;;21.35;71.32
23118;BME280;11728;50.624;6.014;2023-06-19T04:49:05;97919.53;;;21.47;70.57
23118;BME280;11728;50.624;6.014;2023-06-19T04:54:26;97912.00;;;21.52;70.11
23118;BME280;11728;50.624;6.014;2023-06-19T04:59:46;97912.84;;;21.65;69.20
23118;BME280;11728;50.624;6.014;2023-06-19T05:05:08;97911.22;;;21.74;68.42
23118;BME280;11728;50.624;6.014;2023-06-19T05:10:28;97916.91;;;21.82;67.84
23118;BME280;11728;50.624;6.014;2023-06-19T05:15:49;97939.22;;;21.95;67.35
23118;BME280;11728;50.624;6.014;2023-06-19T05:21:11;97938.06;;;21.99;67.26
23118;BME280;11728;50.624;6.014;2023-06-19T05:26:31;97953.84;;;22.04;67.22
23118;BME280;11728;50.624;6.014;2023-06-19T05:31:52;97946.97;;;22.23;66.85
23118;BME280;11728;50.624;6.014;2023-06-19T05:37:13;97947.66;;;22.50;66.21
23118;BME280;11728;50.624;6.014;2023-06-19T05:42:34;97938.91;;;22.70;65.25
23118;BME280;11728;50.624;6.014;2023-06-19T05:47:55;97939.09;;;22.90;64.86
23118;BME280;11728;50.624;6.014;2023-06-19T05:53:15;97939.69;;;22.83;64.46
23118;BME280;11728;50.624;6.014;2023-06-19T05:58:36;97960.22;;;22.73;65.13
23118;BME280;11728;50.624;6.014;2023-06-19T06:03:57;97956.00;;;22.92;64.68
23118;BME280;11728;50.624;6.014;2023-06-19T06:09:18;97956.47;;;23.21;63.58
23118;BME280;11728;50.624;6.014;2023-06-19T06:14:40;97959.69;;;23.47;62.61
23118;BME280;11728;50.624;6.014;2023-06-19T06:20:01;97976.00;;;23.57;62.19
23118;BME280;11728;50.624;6.014;2023-06-19T06:25:22;97989.34;;;23.58;61.78
23118;BME280;11728;50.624;6.014;2023-06-19T06:30:43;97986.19;;;23.97;60.80
23118;BME280;11728;50.624;6.014;2023-06-19T06:36:04;97995.69;;;24.56;58.71
23118;BME280;11728;50.624;6.014;2023-06-19T06:41:25;97984.28;;;24.83;56.66
23118;BME280;11728;50.624;6.014;2023-06-19T06:46:46;97997.84;;;24.73;56.63
23118;BME280;11728;50.624;6.014;2023-06-19T06:52:06;97995.84;;;24.75;55.92
23118;BME280;11728;50.624;6.014;2023-06-19T06:57:27;98011.66;;;24.90;55.83
23118;BME280;11728;50.624;6.014;2023-06-19T07:02:48;98017.13;;;24.99;55.00
23118;BME280;11728;50.624;6.014;2023-06-19T07:08:11;98024.78;;;24.94;54.71
23118;BME280;11728;50.624;6.014;2023-06-19T07:13:31;98037.75;;;25.11;54.36
23118;BME280;11728;50.624;6.014;2023-06-19T07:18:52;98031.84;;;25.17;53.65
23118;BME280;11728;50.624;6.014;2023-06-19T07:24:13;98028.88;;;25.20;53.61
23118;BME280;11728;50.624;6.014;2023-06-19T07:29:33;98044.13;;;25.62;52.51
23118;BME280;11728;50.624;6.014;2023-06-19T07:34:54;98031.75;;;25.89;51.91
23118;BME280;11728;50.624;6.014;2023-06-19T07:40:15;98039.91;;;26.29;50.40
23118;BME280;11728;50.624;6.014;2023-06-19T07:45:35;98045.22;;;26.88;48.38
23118;BME280;11728;50.624;6.014;2023-06-19T07:50:56;98022.41;;;27.76;46.51
23118;BME280;11728;50.624;6.014;2023-06-19T07:56:17;98026.75;;;28.41;45.62
23118;BME280;11728;50.624;6.014;2023-06-19T08:01:37;98032.34;;;29.46;43.70
23118;BME280;11728;50.624;6.014;2023-06-19T08:06:58;98052.88;;;29.58;42.16
23118;BME280;11728;50.624;6.014;2023-06-19T08:12:19;98054.66;;;28.70;42.45
23118;BME280;11728;50.624;6.014;2023-06-19T08:17:40;98037.25;;;27.91;43.39
23118;BME280;11728;50.624;6.014;2023-06-19T08:23:01;98041.16;;;28.05;43.62
23118;BME280;11728;50.624;6.014;2023-06-19T08:28:22;98049.78;;;29.35;41.84
23118;BME280;11728;50.624;6.014;2023-06-19T08:33:42;98059.72;;;29.27;41.46
23118;BME280;11728;50.624;6.014;2023-06-19T08:39:03;98059.09;;;29.67;40.04
23118;BME280;11728;50.624;6.014;2023-06-19T08:44:24;98058.53;;;29.81;39.62
23118;BME280;11728;50.624;6.014;2023-06-19T08:49:44;98057.50;;;30.25;39.12
23118;BME280;11728;50.624;6.014;2023-06-19T08:55:06;98059.69;;;30.47;38.36
23118;BME280;11728;50.624;6.014;2023-06-19T09:00:28;98063.72;;;30.43;38.80
23118;BME280;11728;50.624;6.014;2023-06-19T09:05:49;98058.66;;;31.54;37.08
23118;BME280;11728;50.624;6.014;2023-06-19T09:11:11;98063.19;;;32.65;35.22
23118;BME280;11728;50.624;6.014;2023-06-19T09:16:40;98062.19;;;32.58;34.88
23118;BME280;11728;50.624;6.014;2023-06-19T09:22:05;98072.69;;;32.77;34.52
23118;BME280;11728;50.624;6.014;2023-06-19T09:27:32;98069.28;;;33.66;34.08
23118;BME280;11728;50.624;6.014;2023-06-19T09:32:53;98062.53;;;34.50;32.23
23118;BME280;11728;50.624;6.014;2023-06-19T09:38:13;98057.88;;;35.23;31.53
23118;BME280;11728;50.624;6.014;2023-06-19T09:43:43;98061.69;;;35.42;30.50
23118;BME280;11728;50.624;6.014;2023-06-19T09:49:06;98061.13;;;35.68;29.56
23118;BME280;11728;50.624;6.014;2023-06-19T09:54:27;98065.53;;;35.83;28.94
23118;BME280;11728;50.624;6.014;2023-06-19T09:59:53;98057.50;;;36.57;28.31
23118;BME280;11728;50.624;6.014;2023-06-19T10:05:15;98070.94;;;36.18;27.73
23118;BME280;11728;50.624;6.014;2023-06-19T10:10:46;98061.34;;;36.35;27.42
23118;BME280;11728;50.624;6.014;2023-06-19T10:16:19;98058.06;;;35.77;28.02
23118;BME280;11728;50.624;6.014;2023-06-19T10:21:48;98053.34;;;35.50;28.99
23118;BME280;11728;50.624;6.014;2023-06-19T10:27:09;98053.75;;;35.89;29.07
23118;BME280;11728;50.624;6.014;2023-06-19T10:32:30;98059.53;;;36.42;27.89
23118;BME280;11728;50.624;6.014;2023-06-19T10:37:51;98060.56;;;36.41;27.17
23118;BME280;11728;50.624;6.014;2023-06-19T10:43:13;98055.34;;;36.53;26.68
23118;BME280;11728;50.624;6.014;2023-06-19T10:48:40;98049.94;;;37.06;26.59
23118;BME280;11728;50.624;6.014;2023-06-19T10:54:00;98056.69;;;37.44;25.84
23118;BME280;11728;50.624;6.014;2023-06-19T10:59:21;98044.47;;;37.72;25.73
23118;BME280;11728;50.624;6.014;2023-06-19T11:04:42;98034.13;;;38.32;24.83
23118;BME280;11728;50.624;6.014;2023-06-19T11:10:04;98032.09;;;38.91;24.60
23118;BME280;11728;50.624;6.014;2023-06-19T11:15:32;98033.16;;;38.90;24.51
23118;BME280;11728;50.624;6.014;2023-06-19T11:20:53;98023.28;;;39.20;25.19
23118;BME280;11728;50.624;6.014;2023-06-19T11:26:14;98029.34;;;39.78;23.31
23118;BME280;11728;50.624;6.014;2023-06-19T11:31:35;98030.84;;;40.36;22.80
23118;BME280;11728;50.624;6.014;2023-06-19T11:36:55;98020.75;;;40.17;23.01
23118;BME280;11728;50.624;6.014;2023-06-19T11:42:16;98013.91;;;40.19;22.54
23118;BME280;11728;50.624;6.014;2023-06-19T11:47:40;98024.94;;;39.34;23.95
23118;BME280;11728;50.624;6.014;2023-06-19T11:53:01;98022.63;;;38.54;24.59
23118;BME280;11728;50.624;6.014;2023-06-19T11:58:22;98024.22;;;37.39;24.78
23118;BME280;11728;50.624;6.014;2023-06-19T12:03:43;98022.66;;;36.16;26.52
23118;BME280;11728;50.624;6.014;2023-06-19T12:09:03;98024.81;;;35.51;27.02
23118;BME280;11728;50.624;6.014;2023-06-19T12:14:25;98025.50;;;35.81;27.45
23118;BME280;11728;50.624;6.014;2023-06-19T12:19:46;98028.16;;;36.77;27.21
23118;BME280;11728;50.624;6.014;2023-06-19T12:25:09;98021.38;;;37.92;24.96
23118;BME280;11728;50.624;6.014;2023-06-19T12:30:31;98006.50;;;38.45;25.43
23118;BME280;11728;50.624;6.014;2023-06-19T12:35:52;98014.97;;;38.63;25.11
23118;BME280;11728;50.624;6.014;2023-06-19T12:41:13;98005.03;;;39.19;23.31
23118;BME280;11728;50.624;6.014;2023-06-19T12:46:33;97994.53;;;39.64;23.88
23118;BME280;11728;50.624;6.014;2023-06-19T12:51:54;97980.41;;;39.72;23.33
23118;BME280;11728;50.624;6.014;2023-06-19T12:57:15;97985.81;;;40.16;23.04
23118;BME280;11728;50.624;6.014;2023-06-19T13:02:36;97982.19;;;39.67;22.75
23118;BME280;11728;50.624;6.014;2023-06-19T13:07:57;97979.56;;;39.47;22.33
23118;BME280;11728;50.624;6.014;2023-06-19T13:13:18;97982.56;;;38.96;24.33
23118;BME280;11728;50.624;6.014;2023-06-19T13:18:38;97968.72;;;38.26;23.91
23118;BME280;11728;50.624;6.014;2023-06-19T13:23:59;97975.22;;;37.35;24.76
23118;BME280;11728;50.624;6.014;2023-06-19T13:29:20;97974.34;;;36.75;25.42
23118;BME280;11728;50.624;6.014;2023-06-19T13:34:40;97970.06;;;36.66;26.27
23118;BME280;11728;50.624;6.014;2023-06-19T13:40:02;97963.91;;;36.30;26.44
23118;BME280;11728;50.624;6.014;2023-06-19T13:45:23;97967.53;;;36.03;26.08
23118;BME280;11728;50.624;6.014;2023-06-19T13:50:44;97958.75;;;35.66;27.19
23118;BME280;11728;50.624;6.014;2023-06-19T13:56:05;97945.34;;;35.84;27.58
23118;BME280;11728;50.624;6.014;2023-06-19T14:01:26;97951.53;;;35.86;26.62
23118;BME280;11728;50.624;6.014;2023-06-19T14:06:47;97949.34;;;35.54;27.29
23118;BME280;11728;50.624;6.014;2023-06-19T14:12:08;97947.75;;;35.66;26.13
23118;BME280;11728;50.624;6.014;2023-06-19T14:17:29;97944.88;;;35.53;27.03
23118;BME280;11728;50.624;6.014;2023-06-19T14:22:50;97939.81;;;35.50;26.27
23118;BME280;11728;50.624;6.014;2023-06-19T14:28:11;97935.34;;;35.49;26.54
23118;BME280;11728;50.624;6.014;2023-06-19T14:33:34;97927.47;;;35.25;27.07
23118;BME280;11728;50.624;6.014;2023-06-19T14:38:57;97937.03;;;35.08;27.32
23118;BME280;11728;50.624;6.014;2023-06-19T14:44:18;97920.16;;;35.11;28.10
23118;BME280;11728;50.624;6.014;2023-06-19T14:49:38;97916.41;;;35.19;27.55
23118;BME280;11728;50.624;6.014;2023-06-19T14:54:59;97916.09;;;35.07;28.51
23118;BME280;11728;50.624;6.014;2023-06-19T15:00:20;97909.88;;;34.84;27.13
23118;BME280;11728;50.624;6.014;2023-06-19T15:05:41;97915.19;;;34.65;27.86
23118;BME280;11728;50.624;6.014;2023-06-19T15:11:01;97915.34;;;34.63;27.80
23118;BME280;11728;50.624;6.014;2023-06-19T15:16:23;97916.41;;;34.48;28.08
23118;BME280;11728;50.624;6.014;2023-06-19T15:21:45;97912.72;;;34.55;27.90
23118;BME280;11728;50.624;6.014;2023-06-19T15:27:06;97900.59;;;34.64;28.68
23118;BME280;11728;50.624;6.014;2023-06-19T15:32:27;97900.03;;;34.54;28.31
23118;BME280;11728;50.624;6.014;2023-06-19T15:37:48;97889.75;;;34.42;27.63
23118;BME280;11728;50.624;6.014;2023-06-19T15:43:09;97891.94;;;34.18;28.27
23118;BME280;11728;50.624;6.014;2023-06-19T15:48:30;97878.03;;;34.19;28.98
23118;BME280;11728;50.624;6.014;2023-06-19T15:53:50;97881.06;;;34.24;28.71
23118;BME280;11728;50.624;6.014;2023-06-19T15:59:11;97880.38;;;34.37;28.12
23118;BME280;11728;50.624;6.014;2023-06-19T16:04:32;97880.69;;;34.13;27.63
23118;BME280;11728;50.624;6.014;2023-06-19T16:09:52;97875.84;;;33.86;28.50
23118;BME280;11728;50.624;6.014;2023-06-19T16:15:13;97875.94;;;33.78;29.27
23118;BME280;11728;50.624;6.014;2023-06-19T16:20:35;97875.47;;;33.89;29.33
23118;BME280;11728;50.624;6.014;2023-06-19T16:25:55;97866.28;;;33.82;28.81
23118;BME280;11728;50.624;6.014;2023-06-19T16:31:17;97870.09;;;33.67;28.70
23118;BME280;11728;50.624;6.014;2023-06-19T16:36:38;97867.28;;;33.52;28.80
23118;BME280;11728;50.624;6.014;2023-06-19T16:41:58;97868.00;;;33.68;29.51
23118;BME280;11728;50.624;6.014;2023-06-19T16:47:19;97864.03;;;33.71;29.31
23118;BME280;11728;50.624;6.014;2023-06-19T16:52:40;97864.53;;;33.52;29.42
23118;BME280;11728;50.624;6.014;2023-06-19T16:58:01;97858.47;;;33.28;29.60
23118;BME280;11728;50.624;6.014;2023-06-19T17:03:22;97852.41;;;32.95;30.05
23118;BME280;11728;50.624;6.014;2023-06-19T17:08:42;97855.69;;;32.69;30.47
23118;BME280;11728;50.624;6.014;2023-06-19T17:14:03;97858.13;;;32.56;30.81
23118;BME280;11728;50.624;6.014;2023-06-19T17:19:26;97859.13;;;32.32;31.54
23118;BME280;11728;50.624;6.014;2023-06-19T17:24:47;97867.97;;;32.12;31.52
23118;BME280;11728;50.624;6.014;2023-06-19T17:30:09;97875.88;;;31.91;31.70
23118;BME280;11728;50.624;6.014;2023-06-19T17:35:31;97882.59;;;31.81;32.21
23118;BME280;11728;50.624;6.014;2023-06-19T17:40:51;97879.06;;;31.64;33.09
23118;BME280;11728;50.624;6.014;2023-06-19T17:46:12;97883.00;;;31.46;33.03
23118;BME280;11728;50.624;6.014;2023-06-19T17:51:33;97886.25;;;31.25;33.83
23118;BME280;11728;50.624;6.014;2023-06-19T17:56:54;97884.03;;;31.13;33.85
23118;BME280;11728;50.624;6.014;2023-06-19T18:02:14;97883.16;;;30.97;33.27
23118;BME280;11728;50.624;6.014;2023-06-19T18:07:35;97878.56;;;30.73;34.47
23118;BME280;11728;50.624;6.014;2023-06-19T18:12:56;97876.66;;;30.58;34.88
23118;BME280;11728;50.624;6.014;2023-06-19T18:18:18;97880.88;;;30.44;34.71
23118;BME280;11728;50.624;6.014;2023-06-19T18:23:39;97884.75;;;30.26;35.22
23118;BME280;11728;50.624;6.014;2023-06-19T18:28:59;97889.44;;;30.08;35.24
23118;BME280;11728;50.624;6.014;2023-06-19T18:34:20;97881.03;;;29.94;36.08
23118;BME280;11728;50.624;6.014;2023-06-19T18:39:41;97887.88;;;29.72;35.63
23118;BME280;11728;50.624;6.014;2023-06-19T18:45:02;97890.56;;;29.64;36.75
23118;BME280;11728;50.624;6.014;2023-06-19T18:50:23;97893.38;;;29.47;36.64
23118;BME280;11728;50.624;6.014;2023-06-19T18:55:43;97893.91;;;29.33;37.04
23118;BME280;11728;50.624;6.014;2023-06-19T19:01:04;97898.06;;;29.20;37.20
23118;BME280;11728;50.624;6.014;2023-06-19T19:06:25;97893.38;;;29.04;37.79
23118;BME280;11728;50.624;6.014;2023-06-19T19:11:46;97881.88;;;28.93;37.67
23118;BME280;11728;50.624;6.014;2023-06-19T19:17:09;97896.72;;;28.81;37.80
23118;BME280;11728;50.624;6.014;2023-06-19T19:22:30;97895.94;;;28.71;38.50
23118;BME280;11728;50.624;6.014;2023-06-19T19:27:51;97907.03;;;28.60;38.50
23118;BME280;11728;50.624;6.014;2023-06-19T19:33:11;97893.97;;;28.46;39.24
23118;BME280;11728;50.624;6.014;2023-06-19T19:38:33;97898.22;;;28.31;39.27
23118;BME280;11728;50.624;6.014;2023-06-19T19:43:54;97900.16;;;28.21;39.23
23118;BME280;11728;50.624;6.014;2023-06-19T19:49:15;97910.19;;;28.11;40.07
23118;BME280;11728;50.624;6.014;2023-06-19T19:54:35;97916.53;;;28.02;40.07
23118;BME280;11728;50.624;6.014;2023-06-19T19:59:56;97922.25;;;28.00;40.32
23118;BME280;11728;50.624;6.014;2023-06-19T20:05:17;97940.31;;;27.91;41.25
23118;BME280;11728;50.624;6.014;2023-06-19T20:10:37;97945.78;;;27.82;41.12
23118;BME280;11728;50.624;6.014;2023-06-19T20:15:58;97942.25;;;27.72;41.64
23118;BME280;11728;50.624;6.014;2023-06-19T20:21:19;97945.84;;;27.63;41.92
23118;BME280;11728;50.624;6.014;2023-06-19T20:26:40;97942.28;;;27.53;42.02
23118;BME280;11728;50.624;6.014;2023-06-19T20:32:01;97951.34;;;27.34;42.44
23118;BME280;11728;50.624;6.014;2023-06-19T20:37:21;97956.50;;;27.00;42.94
23118;BME280;11728;50.624;6.014;2023-06-19T20:42:42;97943.06;;;26.70;43.95
23118;BME280;11728;50.624;6.014;2023-06-19T20:48:03;97942.47;;;26.47;44.51
23118;BME280;11728;50.624;6.014;2023-06-19T20:53:24;97941.00;;;26.34;44.79
23118;BME280;11728;50.624;6.014;2023-06-19T20:58:46;97944.69;;;26.24;45.06
23118;BME280;11728;50.624;6.014;2023-06-19T21:04:07;97938.84;;;26.19;45.45
23118;BME280;11728;50.624;6.014;2023-06-19T21:09:28;97949.19;;;26.14;45.77
23118;BME280;11728;50.624;6.014;2023-06-19T21:14:48;97940.94;;;26.06;46.10
23118;BME280;11728;50.624;6.014;2023-06-19T21:20:09;97938.31;;;25.95;46.43
23118;BME280;11728;50.624;6.014;2023-06-19T21:25:30;97940.44;;;25.82;46.44
23118;BME280;11728;50.624;6.014;2023-06-19T21:30:51;97938.38;;;25.74;46.76
23118;BME280;11728;50.624;6.014;2023-06-19T21:36:12;97940.47;;;25.71;46.50
23118;BME280;11728;50.624;6.014;2023-06-19T21:41:32;97940.88;;;25.66;46.67
23118;BME280;11728;50.624;6.014;2023-06-19T21:46:53;97938.72;;;25.61;47.33
23118;BME280;11728;50.624;6.014;2023-06-19T21:52:14;97944.81;;;25.53;47.68
23118;BME280;11728;50.624;6.014;2023-06-19T21:57:35;97941.78;;;25.47;47.93
23118;BME280;11728;50.624;6.014;2023-06-19T22:02:59;97944.91;;;25.42;48.63
23118;BME280;11728;50.624;6.014;2023-06-19T22:08:20;97949.66;;;25.29;48.89
23118;BME280;11728;50.624;6.014;2023-06-19T22:13:40;97951.00;;;25.14;49.28
23118;BME280;11728;50.624;6.014;2023-06-19T22:19:01;97939.94;;;25.06;49.77
23118;BME280;11728;50.624;6.014;2023-06-19T22:24:22;97931.19;;;24.93;50.58
23118;BME280;11728;50.624;6.014;2023-06-19T22:29:43;97940.38;;;24.71;51.69
23118;BME280;11728;50.624;6.014;2023-06-19T22:35:04;97937.38;;;24.53;52.16
23118;BME280;11728;50.624;6.014;2023-06-19T22:40:25;97936.28;;;24.45;53.06
23118;BME280;11728;50.624;6.014;2023-06-19T22:45:46;97934.34;;;24.36;53.64
23118;BME280;11728;50.624;6.014;2023-06-19T22:51:07;97934.88;;;24.19;54.34
23118;BME280;11728;50.624;6.014;2023-06-19T22:56:28;97938.69;;;24.16;55.22
23118;BME280;11728;50.624;6.014;2023-06-19T23:01:49;97939.53;;;24.17;56.16
23118;BME280;11728;50.624;6.014;2023-06-19T23:07:10;97943.22;;;24.16;57.60
23118;BME280;11728;50.624;6.014;2023-06-19T23:12:30;97940.06;;;24.11;58.41
23118;BME280;11728;50.624;6.014;2023-06-19T23:17:51;97938.00;;;24.04;58.44
23118;BME280;11728;50.624;6.014;2023-06-19T23:23:13;97938.09;;;24.02;59.65
23118;BME280;11728;50.624;6.014;2023-06-19T23:28:34;97947.31;;;24.00;60.25
23118;BME280;11728;50.624;6.014;2023-06-19T23:33:54;97935.31;;;23.93;61.63
23118;BME280;11728;50.624;6.014;2023-06-19T23:39:19;97926.75;;;23.88;61.87
23118;BME280;11728;50.624;6.014;2023-06-19T23:44:40;97912.75;;;23.83;61.55
23118;BME280;11728;50.624;6.014;2023-06-19T23:50:00;97919.25;;;23.69;61.07
23118;BME280;11728;50.624;6.014;2023-06-19T23:55:21;97920.34;;;23.56;61.16
